Time;durP1;ratioP1;P1;durP2;ratioP2;P2;SDS_P1;SDS_P2;PMS_P1;PMS_P2;Temp;Humidity;BMP_temperature;BMP_pressure;BME280_temperature;BME280_humidity;BME280_pressure;Samples;Min_cycle;Max_cycle;Signal;HPM_P1;HPM_P2
2022/04/04 00:02:15;;;;;;;13.23;6.35;;;;;;;0.60;77.60;99649.81;5032429;28;20059;-49
2022/04/04 00:05:01;;;;;;;14.13;6.30;;;;;;;0.64;77.09;99645.56;5032708;28;20041;-49
2022/04/04 00:07:45;;;;;;;13.25;6.47;;;;;;;0.58;77.58;99641.19;5032567;28;20388;-49
2022/04/04 00:10:31;;;;;;;12.57;5.68;;;;;;;0.59;77.90;99634.34;5032880;28;20049;-50
2022/04/04 00:13:15;;;;;;;16.35;6.45;;;;;;;0.53;78.15;99642.00;5032707;28;20660;-49
2022/04/04 00:16:00;;;;;;;14.65;6.60;;;;;;;0.56;78.40;99634.31;5032064;28;20042;-49
2022/04/04 00:18:44;;;;;;;14.15;6.63;;;;;;;0.52;78.30;99636.00;5032280;28;20099;-49
2022/04/04 00:21:29;;;;;;;18.85;6.43;;;;;;;0.61;77.63;99633.50;5032670;28;20053;-49
2022/04/04 00:24:13;;;;;;;13.68;6.35;;;;;;;0.65;77.08;99629.25;5033133;28;20436;-49
2022/04/04 00:26:58;;;;;;;11.68;5.80;;;;;;;0.64;76.35;99630.09;5031047;28;20111;-49
2022/04/04 00:29:43;;;;;;;14.27;6.10;;;;;;;0.59;76.31;99630.06;5031656;28;20143;-49
2022/04/04 00:32:28;;;;;;;12.40;5.78;;;;;;;0.59;77.21;99627.47;5032735;28;20053;-49
2022/04/04 00:35:13;;;;;;;11.13;5.43;;;;;;;0.70;75.76;99620.72;5032504;28;20723;-49
2022/04/04 00:37:58;;;;;;;9.73;4.78;;;;;;;0.69;76.42;99619.00;5032626;28;20057;-50
2022/04/04 00:40:43;;;;;;;11.52;5.13;;;;;;;0.61;76.24;99628.34;5032982;28;20041;-49
2022/04/04 00:43:27;;;;;;;9.70;5.70;;;;;;;0.47;77.26;99617.88;5033162;28;20049;-49
2022/04/04 00:46:11;;;;;;;15.85;6.38;;;;;;;0.43;77.14;99620.41;5029993;28;20462;-49
2022/04/04 00:48:56;;;;;;;12.25;5.97;;;;;;;0.33;78.05;99623.72;5028901;28;20045;-49
2022/04/04 00:51:40;;;;;;;9.75;5.55;;;;;;;0.24;78.38;99614.16;5029164;28;20124;-49
2022/04/04 00:54:25;;;;;;;11.55;5.60;;;;;;;0.15;79.01;99607.16;5028911;28;20041;-50
2022/04/04 00:57:10;;;;;;;11.27;5.35;;;;;;;0.11;79.87;99607.97;5028690;28;20081;-49
2022/04/04 00:59:55;;;;;;;12.68;5.13;;;;;;;0.09;80.27;99606.19;5029013;28;20072;-49
2022/04/04 01:02:40;;;;;;;11.32;4.25;;;;;;;0.08;80.18;99599.31;5029342;28;20073;-49
2022/04/04 01:05:25;;;;;;;10.40;4.72;;;;;;;0.02;80.26;99594.94;5028334;28;20463;-49
2022/04/04 01:08:14;;;;;;;13.75;4.95;;;;;;;0.02;80.71;99594.94;5027060;28;20411;-49
2022/04/04 01:10:58;;;;;;;11.90;5.95;;;;;;;-0.09;81.80;99596.53;5028810;28;20045;-49
2022/04/04 01:13:47;;;;;;;14.73;6.47;;;;;;;-0.18;83.34;99598.94;5028308;28;20057;-49
2022/04/04 01:16:32;;;;;;;12.88;5.30;;;;;;;-0.26;83.59;99585.94;5029466;28;20075;-49
2022/04/04 01:19:16;;;;;;;10.95;6.25;;;;;;;-0.32;84.65;99583.31;5029134;28;20045;-49
2022/04/04 01:22:05;;;;;;;8.75;4.28;;;;;;;-0.34;84.32;99578.13;5028126;28;20049;-49
2022/04/04 01:24:52;;;;;;;9.77;4.65;;;;;;;-0.43;85.54;99577.97;5028072;28;20045;-49
2022/04/04 01:27:39;;;;;;;8.13;4.80;;;;;;;-0.41;84.77;99570.28;5028065;28;20435;-49
2022/04/04 01:30:25;;;;;;;8.95;5.20;;;;;;;-0.44;85.48;99570.25;5028365;28;20045;-49
2022/04/04 01:33:10;;;;;;;8.95;4.85;;;;;;;-0.52;85.89;99572.69;5029073;28;20690;-49
2022/04/04 01:35:57;;;;;;;11.23;5.10;;;;;;;-0.57;86.71;99561.47;5028568;28;20045;-49
2022/04/04 01:38:42;;;;;;;11.82;4.55;;;;;;;-0.58;86.57;99562.31;5028822;28;20061;-49
2022/04/04 01:41:27;;;;;;;10.52;5.47;;;;;;;-0.68;88.51;99558.75;5028715;28;20057;-49
2022/04/04 01:44:11;;;;;;;8.88;4.43;;;;;;;-0.66;87.45;99549.31;5027716;28;20761;-49
2022/04/04 01:46:56;;;;;;;10.43;4.80;;;;;;;-0.62;88.18;99555.38;5026797;28;20040;-50
2022/04/04 01:49:41;;;;;;;9.20;4.90;;;;;;;-0.59;87.60;99551.13;5027490;28;20365;-50
2022/04/04 01:52:26;;;;;;;10.85;4.78;;;;;;;-0.62;88.49;99551.09;5028249;28;20037;-49
2022/04/04 01:55:10;;;;;;;8.90;5.00;;;;;;;-0.59;88.33;99545.13;5028333;28;20426;-49
2022/04/04 01:57:55;;;;;;;8.18;4.00;;;;;;;-0.63;90.53;99549.38;5025811;28;20691;-50
2022/04/04 02:00:40;;;;;;;7.80;4.82;;;;;;;-0.57;90.37;99540.88;5027989;28;20054;-49
2022/04/04 02:03:25;;;;;;;12.00;4.63;;;;;;;-0.56;91.09;99537.47;5028080;28;20068;-49
2022/04/04 02:06:09;;;;;;;9.45;4.60;;;;;;;-0.48;91.12;99528.16;5027726;28;20041;-49
2022/04/04 02:08:54;;;;;;;9.32;4.65;;;;;;;-0.41;90.73;99532.56;5028062;28;20053;-50
2022/04/04 02:11:38;;;;;;;8.80;4.75;;;;;;;-0.31;90.76;99530.97;5028725;28;20048;-49
2022/04/04 02:14:22;;;;;;;11.10;4.97;;;;;;;-0.26;90.56;99529.31;5027368;28;20532;-49
2022/04/04 02:17:07;;;;;;;6.43;3.92;;;;;;;-0.18;90.42;99532.88;5028743;28;20033;-49
2022/04/04 02:19:52;;;;;;;9.25;4.38;;;;;;;-0.10;90.27;99530.41;5026500;28;20492;-49
2022/04/04 02:22:37;;;;;;;6.60;3.80;;;;;;;-0.04;90.67;99525.34;5027875;28;20061;-49
2022/04/04 02:25:22;;;;;;;9.05;4.07;;;;;;;0.02;90.28;99527.13;5027193;28;20057;-49
2022/04/04 02:28:06;;;;;;;8.90;4.55;;;;;;;0.07;90.14;99528.94;5027203;28;20057;-50
2022/04/04 02:30:51;;;;;;;8.68;4.30;;;;;;;0.09;90.46;99522.06;5027561;28;20053;-49
2022/04/04 02:33:36;;;;;;;7.88;4.05;;;;;;;0.18;90.11;99526.47;5027156;28;20038;-49
2022/04/04 02:36:21;;;;;;;6.75;4.22;;;;;;;0.28;89.35;99525.72;5027912;28;20037;-49
2022/04/04 02:39:05;;;;;;;7.53;4.03;;;;;;;0.28;89.20;99523.16;5025676;28;20057;-49
2022/04/04 02:41:49;;;;;;;6.90;4.07;;;;;;;0.29;89.13;99522.31;5027775;28;20459;-49
2022/04/04 02:44:35;;;;;;;8.30;4.38;;;;;;;0.30;89.31;99523.19;5026242;28;20042;-49
2022/04/04 02:47:20;;;;;;;8.35;4.60;;;;;;;0.25;89.32;99517.97;5027609;28;20041;-49
2022/04/04 02:50:06;;;;;;;7.68;4.30;;;;;;;0.33;88.92;99518.06;5027487;28;20611;-49
2022/04/04 02:52:51;;;;;;;6.55;4.05;;;;;;;0.40;88.59;99522.44;5026960;28;20451;-49
2022/04/04 02:58:40;;;;;;;7.70;3.95;;;;;;;0.44;88.70;99511.31;5027063;28;20120;-49
2022/04/04 03:01:24;;;;;;;8.02;4.35;;;;;;;0.51;88.35;99510.53;5026429;28;20050;-49
2022/04/04 03:04:08;;;;;;;14.27;4.63;;;;;;;0.58;88.12;99506.31;5026034;28;20053;-49
2022/04/04 03:06:53;;;;;;;6.72;4.18;;;;;;;0.56;87.98;99501.16;5027910;28;20380;-49
2022/04/04 03:09:37;;;;;;;8.43;4.40;;;;;;;0.58;87.92;99503.72;5025948;28;20049;-49
2022/04/04 03:12:22;;;;;;;7.90;4.85;;;;;;;0.59;88.26;99502.91;5026842;28;20384;-49
2022/04/04 03:15:14;;;;;;;7.82;3.80;;;;;;;0.63;88.73;99505.50;5026231;28;20041;-49
2022/04/04 03:17:58;;;;;;;7.47;4.60;;;;;;;0.62;88.60;99501.22;5026261;28;20065;-49
2022/04/04 03:20:42;;;;;;;8.60;4.68;;;;;;;0.64;89.16;99504.66;5026880;28;20119;-49
2022/04/04 03:23:28;;;;;;;8.43;5.05;;;;;;;0.72;88.44;99503.88;5027587;28;20053;-49
2022/04/04 03:26:13;;;;;;;18.13;6.30;;;;;;;0.79;88.18;99511.69;5026754;28;20188;-49
2022/04/04 03:28:58;;;;;;;13.48;6.65;;;;;;;0.78;88.37;99507.38;5026192;28;20440;-49
2022/04/04 03:31:42;;;;;;;14.32;7.47;;;;;;;0.80;87.42;99497.94;5026137;28;20465;-49
2022/04/04 03:34:27;;;;;;;13.10;7.25;;;;;;;0.88;87.19;99491.16;5027754;28;20042;-50
2022/04/04 03:37:11;;;;;;;11.02;5.80;;;;;;;0.91;87.29;99488.59;5027546;28;20049;-49
2022/04/04 03:39:56;;;;;;;10.90;6.60;;;;;;;0.97;86.98;99495.50;5026040;28;20045;-49
2022/04/04 03:42:41;;;;;;;14.65;6.82;;;;;;;1.05;86.93;99491.28;5029024;28;20430;-49
2022/04/04 03:45:26;;;;;;;8.85;5.07;;;;;;;1.04;87.91;99493.84;5027843;28;20045;-49
2022/04/04 03:48:11;;;;;;;10.93;6.45;;;;;;;1.04;87.50;99488.69;5028156;28;20041;-49
2022/04/04 03:50:56;;;;;;;9.63;6.10;;;;;;;0.97;87.56;99476.59;5026999;28;20388;-49
2022/04/04 03:53:40;;;;;;;10.85;5.65;;;;;;;1.00;87.57;99490.38;5028396;28;20046;-49
2022/04/04 03:56:25;;;;;;;11.48;6.60;;;;;;;0.99;87.86;99488.66;5027150;28;20691;-50
2022/04/04 03:59:10;;;;;;;14.02;7.85;;;;;;;0.99;87.52;99483.50;5027741;28;20053;-49
2022/04/04 04:01:54;;;;;;;16.02;9.82;;;;;;;1.08;87.08;99488.72;5026792;28;20041;-49
2022/04/04 04:04:39;;;;;;;15.30;7.40;;;;;;;1.15;86.50;99481.91;5027473;28;20484;-49
2022/04/04 04:07:25;;;;;;;9.05;6.18;;;;;;;1.13;88.39;99478.44;5027291;28;20053;-49
2022/04/04 04:10:12;;;;;;;8.55;6.57;;;;;;;1.17;92.33;99478.50;5024885;28;20053;-49
2022/04/04 04:12:58;;;;;;;8.80;6.32;;;;;;;1.08;98.86;99482.72;5024886;28;20053;-49
2022/04/04 04:15:43;;;;;;;9.18;5.82;;;;;;;1.07;100.00;99484.44;5023272;28;20056;-50
2022/04/04 04:18:27;;;;;;;10.57;6.05;;;;;;;1.00;100.00;99490.38;5024631;28;20049;-49
2022/04/04 04:21:12;;;;;;;11.02;7.88;;;;;;;1.04;99.46;99483.50;5025048;28;20095;-49
2022/04/04 04:23:56;;;;;;;10.50;7.75;;;;;;;1.06;100.00;99489.56;5028282;28;20076;-49
2022/04/04 04:26:40;;;;;;;13.15;7.22;;;;;;;1.04;100.00;99493.84;5027668;28;20057;-49
2022/04/04 04:29:25;;;;;;;13.18;7.97;;;;;;;1.07;100.00;99483.53;5026950;28;20049;-49
2022/04/04 04:32:09;;;;;;;14.02;8.07;;;;;;;1.03;100.00;99489.53;5028054;28;20089;-49
2022/04/04 04:34:53;;;;;;;13.60;7.50;;;;;;;0.99;100.00;99485.22;5027352;28;20058;-50
2022/04/04 04:37:38;;;;;;;9.00;5.85;;;;;;;0.98;100.00;99479.19;5027957;28;20507;-49
2022/04/04 04:40:23;;;;;;;13.77;8.07;;;;;;;0.92;100.00;99484.28;5027107;28;20048;-50
2022/04/04 04:43:08;;;;;;;14.93;8.90;;;;;;;1.00;100.00;99484.34;5028733;28;20045;-49
2022/04/04 04:45:52;;;;;;;21.63;11.48;;;;;;;0.87;100.00;99481.66;5028435;28;20049;-49
2022/04/04 04:48:37;;;;;;;16.25;9.57;;;;;;;0.83;100.00;99490.22;5027318;28;20054;-49
2022/04/04 04:51:21;;;;;;;20.08;11.13;;;;;;;0.81;100.00;99488.47;5027227;28;20057;-50
2022/04/04 04:54:06;;;;;;;26.20;14.05;;;;;;;0.77;100.00;99489.31;5025538;28;20041;-49
2022/04/04 04:56:51;;;;;;;24.05;13.65;;;;;;;0.79;100.00;99497.94;5025478;28;20053;-49
2022/04/04 04:59:35;;;;;;;12.43;9.25;;;;;;;0.78;100.00;99491.91;5025550;28;20423;-50
2022/04/04 05:02:19;;;;;;;13.32;8.95;;;;;;;0.68;100.00;99497.81;5027522;28;20042;-49
2022/04/04 05:05:04;;;;;;;12.88;8.43;;;;;;;0.60;100.00;99494.31;5025560;28;20053;-49
2022/04/04 05:07:49;;;;;;;12.13;8.25;;;;;;;0.66;100.00;99496.94;5024859;28;20080;-49
2022/04/04 05:10:33;;;;;;;14.05;8.73;;;;;;;0.74;100.00;99491.84;5025373;28;20065;-49
2022/04/04 05:13:19;;;;;;;19.15;9.77;;;;;;;0.69;100.00;99497.84;5026011;28;20056;-49
2022/04/04 05:16:08;;;;;;;19.05;11.55;;;;;;;0.71;100.00;99477.22;5026717;28;20058;-50
2022/04/04 05:18:53;;;;;;;20.58;11.68;;;;;;;0.76;100.00;99493.59;5026234;28;20048;-49
2022/04/04 05:21:38;;;;;;;14.25;9.52;;;;;;;0.78;100.00;99489.34;5026303;28;20049;-49
2022/04/04 05:24:23;;;;;;;18.20;9.93;;;;;;;0.83;100.00;99490.22;5025988;28;20049;-49
2022/04/04 05:27:07;;;;;;;16.77;10.48;;;;;;;1.16;100.00;99486.19;5026307;28;20742;-50
2022/04/04 05:29:52;;;;;;;17.63;11.27;;;;;;;2.06;100.00;99484.16;5027345;28;20049;-49
2022/04/04 05:32:37;;;;;;;18.52;10.32;;;;;;;2.78;100.00;99476.59;5025589;28;20505;-49
2022/04/04 05:35:22;;;;;;;13.52;9.00;;;;;;;3.55;100.00;99488.66;5029656;28;20041;-50
2022/04/04 05:38:06;;;;;;;17.80;9.73;;;;;;;3.93;100.00;99492.03;5024917;28;20041;-49
2022/04/04 05:40:51;;;;;;;12.35;9.27;;;;;;;3.99;100.00;99491.13;5026031;28;20053;-50
2022/04/04 05:43:36;;;;;;;13.00;8.80;;;;;;;4.25;100.00;99495.34;5026155;28;20055;-50
2022/04/04 05:46:20;;;;;;;13.45;8.63;;;;;;;4.63;97.09;99488.22;5025812;28;20068;-50
2022/04/04 05:49:05;;;;;;;12.85;8.40;;;;;;;5.01;91.00;99492.31;5025260;28;20045;-50
2022/04/04 05:51:49;;;;;;;10.98;7.97;;;;;;;5.33;88.14;99481.66;5025422;28;20037;-50
2022/04/04 05:54:34;;;;;;;9.50;6.80;;;;;;;5.22;85.87;99483.47;5024079;28;20049;-50
2022/04/04 05:57:20;;;;;;;11.25;7.40;;;;;;;5.65;82.42;99484.78;5025938;28;20046;-50
2022/04/04 06:00:10;;;;;;;13.88;8.40;;;;;;;5.59;81.40;99490.94;5026111;28;20065;-49
2022/04/04 06:02:56;;;;;;;14.73;7.68;;;;;;;5.31;82.77;99491.19;5026031;28;20053;-50
2022/04/04 06:05:41;;;;;;;13.90;8.48;;;;;;;5.56;81.43;99489.22;5026331;28;20147;-50
2022/04/04 06:08:26;;;;;;;13.15;8.13;;;;;;;5.83;80.28;99490.66;5027025;28;20057;-50
2022/04/04 06:11:10;;;;;;;21.73;13.35;;;;;;;6.36;77.84;99487.47;5026691;28;20053;-50
2022/04/04 06:13:56;;;;;;;41.38;22.05;;;;;;;7.05;74.23;99482.13;5027564;28;20038;-51
2022/04/04 06:16:40;;;;;;;25.05;17.08;;;;;;;7.07;71.27;99479.50;5025329;28;20451;-51
2022/04/04 06:19:27;;;;;;;16.88;11.32;;;;;;;7.48;69.42;99477.06;5025723;28;20563;-50
2022/04/04 06:22:11;;;;;;;15.20;9.23;;;;;;;7.81;67.90;99474.72;5026586;28;20063;-51
2022/04/04 06:24:56;;;;;;;10.00;7.70;;;;;;;7.95;65.93;99472.72;5025707;28;20050;-51
2022/04/04 06:27:41;;;;;;;13.10;8.85;;;;;;;7.96;63.87;99474.44;5025926;28;20057;-50
2022/04/04 06:30:26;;;;;;;9.13;7.25;;;;;;;8.16;61.14;99471.44;5025147;28;20049;-51
2022/04/04 06:33:12;;;;;;;16.35;10.40;;;;;;;8.41;61.00;99476.16;5026133;28;20140;-50
2022/04/04 06:35:57;;;;;;;15.95;9.63;;;;;;;8.92;60.29;99472.41;5026742;28;20037;-51
2022/04/04 06:38:42;;;;;;;18.90;10.43;;;;;;;8.96;58.69;99463.59;5025780;28;20070;-51
2022/04/04 06:41:26;;;;;;;20.88;11.00;;;;;;;8.53;58.64;99468.06;5024652;28;20057;-50
2022/04/04 06:44:12;;;;;;;20.38;10.10;;;;;;;9.27;57.61;99459.34;5024707;28;20041;-52
2022/04/04 06:46:56;;;;;;;73.20;29.40;;;;;;;9.75;55.39;99461.59;5026962;28;20053;-50
2022/04/04 06:49:40;;;;;;;44.00;19.50;;;;;;;10.09;54.92;99462.41;5026505;28;20045;-50
2022/04/04 06:52:26;;;;;;;7.93;6.18;;;;;;;9.22;54.12;99462.97;5019847;28;20069;-51
2022/04/04 06:55:11;;;;;;;18.67;9.70;;;;;;;9.76;53.21;99470.28;5015604;28;20316;-51
2022/04/04 06:57:55;;;;;;;43.83;18.60;;;;;;;9.80;53.08;99461.44;5023956;28;20053;-51
2022/04/04 07:00:41;;;;;;;36.60;15.48;;;;;;;9.43;52.31;99457.22;5024100;28;21385;-50
2022/04/04 07:03:25;;;;;;;17.67;9.48;;;;;;;8.86;54.35;99468.19;5022656;28;20084;-50
2022/04/04 07:06:09;;;;;;;14.82;7.50;;;;;;;8.57;54.63;99456.66;5023303;28;20099;-50
2022/04/04 07:08:54;;;;;;;20.83;9.18;;;;;;;8.53;56.33;99462.84;5025194;28;20041;-50
2022/04/04 07:11:38;;;;;;;8.45;6.32;;;;;;;8.51;56.14;99459.41;5026464;28;20068;-51
2022/04/04 07:14:27;;;;;;;12.82;6.63;;;;;;;8.99;54.62;99453.94;5028967;28;20049;-51
2022/04/04 07:17:11;;;;;;;7.53;5.28;;;;;;;9.31;54.47;99452.28;5026741;28;20049;-51
2022/04/04 07:19:56;;;;;;;10.50;6.47;;;;;;;9.60;53.23;99449.78;5028242;28;20053;-50
2022/04/04 07:22:43;;;;;;;15.90;9.23;;;;;;;9.67;53.09;99441.75;5027124;28;20049;-51
2022/04/04 07:25:31;;;;;;;19.65;12.00;;;;;;;9.68;52.20;99446.09;5028213;28;20041;-51
2022/04/04 07:28:15;;;;;;;12.23;9.13;;;;;;;9.77;51.60;99441.47;5026217;28;20531;-50
2022/04/04 07:31:06;;;;;;;15.35;6.63;;;;;;;9.82;51.46;99443.97;5025835;28;20045;-51
2022/04/04 07:33:50;;;;;;;11.48;6.82;;;;;;;10.08;51.67;99451.09;5023252;28;20116;-51
2022/04/04 07:36:35;;;;;;;10.40;5.90;;;;;;;10.20;50.32;99435.00;5026584;28;20041;-51
2022/04/04 07:39:19;;;;;;;6.63;4.90;;;;;;;10.43;49.29;99437.00;5028175;28;20120;-51
2022/04/04 07:42:04;;;;;;;8.20;5.85;;;;;;;10.43;51.16;99429.13;5027728;28;20053;-51
2022/04/04 07:44:49;;;;;;;9.75;6.57;;;;;;;10.80;51.04;99421.88;5027915;28;20041;-51
2022/04/04 07:47:34;;;;;;;10.10;6.18;;;;;;;11.02;50.73;99427.28;5027712;28;20045;-51
2022/04/04 07:50:19;;;;;;;10.48;6.75;;;;;;;10.81;49.62;99411.34;5028626;28;20033;-51
2022/04/04 07:53:03;;;;;;;8.48;5.47;;;;;;;10.84;49.42;99419.13;5026586;28;20060;-51
2022/04/04 07:55:48;;;;;;;12.50;6.20;;;;;;;10.67;49.29;99414.41;5027725;28;20048;-51
2022/04/04 07:58:33;;;;;;;11.23;6.13;;;;;;;10.70;49.28;99403.00;5032899;28;20404;-51
2022/04/04 08:01:18;;;;;;;11.00;7.90;;;;;;;10.64;49.96;99395.31;5030764;28;20076;-51
2022/04/04 08:04:03;;;;;;;8.52;5.85;;;;;;;10.95;49.71;99403.03;5030896;28;20053;-52
2022/04/04 08:06:47;;;;;;;9.18;4.95;;;;;;;10.81;49.11;99392.16;5030449;28;20072;-52
2022/04/04 08:09:32;;;;;;;11.45;5.95;;;;;;;10.79;49.51;99401.81;5031597;28;20038;-52
2022/04/04 08:12:16;;;;;;;9.85;4.47;;;;;;;10.93;48.98;99397.84;5030845;28;20084;-52
2022/04/04 08:15:01;;;;;;;7.30;5.13;;;;;;;10.86;51.00;99392.88;5031470;28;20458;-52
2022/04/04 08:17:45;;;;;;;6.60;4.15;;;;;;;11.17;49.57;99398.78;5031626;28;20053;-51
2022/04/04 08:20:31;;;;;;;14.25;5.97;;;;;;;11.00;49.18;99401.97;5032192;28;20049;-51
2022/04/04 08:23:16;;;;;;;7.22;4.80;;;;;;;11.23;48.14;99402.97;5030219;28;20132;-51
2022/04/04 08:26:00;;;;;;;6.85;5.10;;;;;;;11.12;49.21;99390.25;5029790;28;20049;-51
2022/04/04 08:28:45;;;;;;;5.97;4.18;;;;;;;11.13;48.58;99384.09;5030807;28;20606;-51
2022/04/04 08:31:31;;;;;;;7.53;3.78;;;;;;;11.05;47.90;99385.25;5028876;28;20049;-53
2022/04/04 08:34:15;;;;;;;6.18;3.90;;;;;;;11.32;48.08;99378.22;5028876;28;20496;-52
2022/04/04 08:37:00;;;;;;;5.10;3.75;;;;;;;11.10;46.77;99373.69;5028477;28;20092;-52
2022/04/04 08:39:47;;;;;;;8.32;3.85;;;;;;;10.64;47.60;99374.38;5030947;28;20404;-52
2022/04/04 08:42:31;;;;;;;5.40;4.13;;;;;;;10.44;48.74;99364.53;5027530;28;20379;-52
2022/04/04 08:45:16;;;;;;;3.85;2.70;;;;;;;10.24;49.99;99362.50;5026162;28;20514;-52
2022/04/04 08:48:01;;;;;;;5.53;3.00;;;;;;;10.06;50.26;99363.91;5027324;28;20365;-51
2022/04/04 08:50:45;;;;;;;5.88;3.45;;;;;;;10.09;49.70;99361.19;5028017;28;20073;-51
2022/04/04 08:53:30;;;;;;;7.47;3.53;;;;;;;10.83;49.48;99351.91;5026837;28;20053;-51
2022/04/04 08:56:15;;;;;;;11.48;4.45;;;;;;;11.09;48.60;99348.41;5026344;28;20049;-51
2022/04/04 08:59:00;;;;;;;4.32;2.80;;;;;;;10.92;46.75;99341.13;5027667;28;20046;-52
2022/04/04 09:01:44;;;;;;;10.75;3.42;;;;;;;10.70;47.08;99340.13;5027472;28;20495;-52
2022/04/04 09:04:32;;;;;;;8.77;2.97;;;;;;;10.53;46.50;99332.81;5026630;28;20041;-52
2022/04/04 09:07:18;;;;;;;10.52;5.10;;;;;;;10.85;45.98;99326.50;5026728;28;20169;-52
2022/04/04 09:10:03;;;;;;;12.25;5.38;;;;;;;11.27;46.24;99322.44;5026713;28;20135;-51
2022/04/04 09:12:48;;;;;;;9.15;5.10;;;;;;;11.23;44.96;99324.34;5028946;28;20506;-51
2022/04/04 09:15:56;;;;;;;6.43;3.10;;;;;;;11.23;43.64;99316.47;5026589;28;20049;-51
2022/04/04 09:18:46;;;;;;;3.33;2.28;;;;;;;10.79;43.72;99312.75;5027798;28;20431;-51
2022/04/04 09:21:33;;;;;;;5.20;2.60;;;;;;;10.22;45.67;99298.88;5030081;28;20048;-51
2022/04/04 09:24:17;;;;;;;7.13;3.85;;;;;;;10.50;45.28;99298.88;5028208;28;20050;-51
2022/04/04 09:27:13;;;;;;;6.32;3.20;;;;;;;10.63;45.42;99297.56;5030145;28;20499;-51
2022/04/04 09:30:00;;;;;;;7.95;4.32;;;;;;;10.53;45.08;99288.31;5031396;28;20045;-51
2022/04/04 09:32:49;;;;;;;5.97;4.50;;;;;;;10.33;45.12;99281.09;5031886;28;20057;-51
2022/04/04 09:35:45;;;;;;;5.82;3.40;;;;;;;10.24;44.96;99284.84;5030084;28;20049;-52
2022/04/04 09:38:30;;;;;;;7.95;4.78;;;;;;;10.23;46.83;99282.25;5029440;28;20050;-51
2022/04/04 09:41:15;;;;;;;4.85;3.55;;;;;;;10.52;47.48;99279.56;5030926;28;20069;-51
2022/04/04 09:44:04;;;;;;;6.00;2.70;;;;;;;10.36;45.37;99275.75;5032106;28;20049;-51
2022/04/04 09:46:49;;;;;;;6.40;2.90;;;;;;;10.19;44.41;99271.03;5029776;28;20042;-51
2022/04/04 09:49:39;;;;;;;5.65;2.63;;;;;;;10.05;44.67;99262.78;5031239;28;20050;-51
2022/04/04 09:52:23;;;;;;;5.53;3.53;;;;;;;9.76;45.29;99253.22;5030935;28;20053;-51
2022/04/04 09:55:38;;;;;;;6.55;2.97;;;;;;;9.59;45.83;99251.13;5029777;28;20465;-51
2022/04/04 09:58:25;;;;;;;5.05;2.75;;;;;;;9.50;46.46;99236.53;5031056;28;20136;-51
2022/04/04 10:01:09;;;;;;;10.40;5.07;;;;;;;9.41;46.25;99244.66;5030753;28;20057;-51
2022/04/04 10:03:55;;;;;;;11.80;8.30;;;;;;;9.43;46.84;99242.00;5032339;28;20037;-51
2022/04/04 10:06:45;;;;;;;10.70;8.82;;;;;;;9.35;47.31;99223.91;5030478;28;20046;-52
2022/04/04 10:09:29;;;;;;;7.32;4.00;;;;;;;9.35;47.46;99218.69;5030270;28;21548;-51
2022/04/04 10:12:14;;;;;;;6.18;3.85;;;;;;;9.51;47.26;99225.19;5030579;28;20053;-51
2022/04/04 10:15:00;;;;;;;5.80;4.13;;;;;;;9.48;47.17;99212.19;5029980;28;20068;-51
2022/04/04 10:17:45;;;;;;;9.05;3.70;;;;;;;9.39;47.58;99211.63;5029754;28;20049;-52
2022/04/04 10:20:30;;;;;;;7.32;4.10;;;;;;;9.63;47.26;99210.88;5027326;28;20072;-51
2022/04/04 10:23:15;;;;;;;3.67;2.28;;;;;;;9.99;45.84;99203.66;5028360;28;20062;-51
2022/04/04 10:26:00;;;;;;;7.30;3.60;;;;;;;10.14;45.26;99204.91;5029311;28;20045;-51
2022/04/04 10:28:46;;;;;;;8.95;4.75;;;;;;;10.32;46.14;99197.38;5029557;28;20049;-51
2022/04/04 10:31:41;;;;;;;5.60;3.88;;;;;;;10.87;44.29;99190.22;5029687;28;20455;-51
2022/04/04 10:34:26;;;;;;;6.75;3.90;;;;;;;11.02;42.41;99187.06;5029183;28;20083;-51
2022/04/04 10:37:11;;;;;;;5.82;3.40;;;;;;;10.86;43.17;99186.75;5030199;28;20050;-52
2022/04/04 10:39:55;;;;;;;4.03;3.22;;;;;;;11.00;43.89;99175.78;5029949;28;20049;-52
2022/04/04 10:42:41;;;;;;;5.45;3.70;;;;;;;11.28;43.57;99178.22;5029771;28;20042;-51
2022/04/04 10:45:28;;;;;;;6.38;3.20;;;;;;;11.46;41.79;99166.16;5030700;28;20116;-52
2022/04/04 10:48:17;;;;;;;5.70;3.70;;;;;;;11.48;42.21;99163.50;5029649;28;20263;-51
2022/04/04 10:51:09;;;;;;;5.13;3.35;;;;;;;11.30;42.86;99159.81;5029215;28;20111;-51
2022/04/04 10:54:00;;;;;;;11.43;4.15;;;;;;;11.07;42.57;99163.28;5028433;28;20648;-52
2022/04/04 10:56:46;;;;;;;4.97;3.40;;;;;;;10.68;42.07;99148.97;5029412;28;20045;-51
2022/04/04 10:59:30;;;;;;;8.60;3.90;;;;;;;10.60;43.85;99158.03;5028730;28;20064;-51
2022/04/04 11:02:20;;;;;;;5.20;2.80;;;;;;;10.52;42.89;99132.94;5030046;28;20045;-51
2022/04/04 11:08:32;;;;;;;5.90;3.00;;;;;;;10.98;42.47;99135.66;5027426;28;20056;-52
2022/04/04 11:11:19;;;;;;;3.80;2.88;;;;;;;10.67;42.57;99128.09;5029819;28;20084;-50
2022/04/04 11:14:04;;;;;;;5.38;2.42;;;;;;;10.52;41.67;99119.00;5028130;28;20475;-51
2022/04/04 11:17:06;;;;;;;5.50;2.60;;;;;;;10.65;43.23;99122.03;5027230;28;20415;-51
2022/04/04 11:20:00;;;;;;;8.77;5.53;;;;;;;10.63;42.35;99116.03;5027071;28;20043;-52
2022/04/04 11:22:47;;;;;;;4.10;2.35;;;;;;;10.63;42.88;99116.88;5025406;28;20126;-51
2022/04/04 11:25:34;;;;;;;3.63;2.13;;;;;;;10.57;42.02;99111.00;5025261;28;20053;-51
2022/04/04 11:28:22;;;;;;;6.00;3.10;;;;;;;10.37;43.50;99101.25;5025034;28;20091;-51
2022/04/04 11:31:11;;;;;;;17.70;7.95;;;;;;;10.70;42.72;99079.06;5027573;28;20395;-51
2022/04/04 11:33:56;;;;;;;6.90;4.38;;;;;;;11.31;43.66;99099.47;5026489;28;20151;-51
2022/04/04 11:36:43;;;;;;;5.18;2.10;;;;;;;11.13;41.37;99085.28;5028039;28;20046;-51
2022/04/04 11:39:29;;;;;;;4.22;2.53;;;;;;;11.06;42.39;99078.59;5027016;28;20045;-51
2022/04/04 11:42:14;;;;;;;19.60;11.15;;;;;;;10.89;42.15;99068.75;5027294;28;20056;-51
2022/04/04 11:44:59;;;;;;;5.10;3.22;;;;;;;11.03;41.55;99065.59;5026878;28;20049;-52
2022/04/04 11:47:53;;;;;;;6.38;3.65;;;;;;;11.41;41.40;99066.72;5027706;28;20057;-51
2022/04/04 11:50:39;;;;;;;3.33;2.47;;;;;;;11.53;39.65;99054.88;5028058;28;20045;-52
2022/04/04 11:53:26;;;;;;;11.27;5.13;;;;;;;11.63;41.29;99043.09;5026614;28;20041;-51
2022/04/04 11:56:20;;;;;;;22.02;13.75;;;;;;;11.17;40.25;99050.19;5027148;28;20064;-51
2022/04/04 11:59:06;;;;;;;8.52;4.72;;;;;;;10.91;40.31;99042.47;5019865;28;21219;-51
2022/04/04 12:01:57;;;;;;;32.95;12.15;;;;;;;11.17;40.82;99028.38;5028640;28;20057;-51
2022/04/04 12:04:43;;;;;;;18.67;10.07;;;;;;;11.23;39.47;99034.22;5027012;28;21188;-51
2022/04/04 12:07:31;;;;;;;4.93;3.58;;;;;;;10.99;40.98;99019.47;5027762;28;20054;-51
2022/04/04 12:10:27;;;;;;;11.70;3.05;;;;;;;11.12;40.95;99014.59;5027929;28;20056;-51
2022/04/04 12:13:14;;;;;;;6.65;3.60;;;;;;;11.10;41.01;99005.94;5028418;28;20690;-51
2022/04/04 12:15:58;;;;;;;11.70;3.10;;;;;;;10.89;40.70;98994.56;5026037;28;20052;-51
2022/04/04 12:18:43;;;;;;;7.05;3.00;;;;;;;11.07;42.64;99001.66;5023524;28;20053;-52
2022/04/04 12:21:28;;;;;;;6.53;2.33;;;;;;;11.53;40.49;98991.06;5024542;28;20527;-52
2022/04/04 12:27:17;;;;;;;;;;;;;;;11.78;39.58;98983.88;5024326;28;20041;-52
2022/04/04 12:30:04;;;;;;;5.15;2.65;;;;;;;11.65;40.12;98964.34;5021998;28;19921;-51
2022/04/04 12:32:49;;;;;;;8.60;2.83;;;;;;;11.64;39.05;98965.28;5022126;28;20413;-51
2022/04/04 12:35:41;;;;;;;6.03;2.50;;;;;;;11.49;39.32;98968.53;5023388;28;20050;-52
2022/04/04 12:38:31;;;;;;;4.65;2.53;;;;;;;11.30;39.29;98950.09;5023140;28;20041;-52
2022/04/04 12:41:16;;;;;;;9.98;2.58;;;;;;;11.32;40.33;98951.72;5023663;28;20053;-51
2022/04/04 12:44:04;;;;;;;5.63;2.53;;;;;;;11.19;40.77;98938.28;5024285;28;20053;-51
2022/04/04 12:46:49;;;;;;;4.50;2.42;;;;;;;11.01;40.46;98936.41;5028027;28;20057;-52
2022/04/04 12:49:33;;;;;;;6.45;2.58;;;;;;;10.89;39.13;98923.81;5027191;28;20053;-51
2022/04/04 12:52:17;;;;;;;10.35;3.40;;;;;;;10.86;40.90;98931.81;5026716;28;20075;-51
2022/04/04 12:55:13;;;;;;;7.50;5.78;;;;;;;11.07;41.01;98924.81;5026554;28;20420;-52
2022/04/04 12:58:26;;;;;;;13.52;9.13;;;;;;;10.94;39.87;98916.63;5026807;28;20081;-51
2022/04/04 13:01:16;;;;;;;8.25;4.20;;;;;;;10.83;40.96;98927.53;5026914;28;20728;-52
2022/04/04 13:04:03;;;;;;;5.47;4.10;;;;;;;10.84;41.22;98907.41;5026279;28;20135;-51
2022/04/04 13:06:48;;;;;;;6.72;3.92;;;;;;;10.77;39.76;98898.97;5026068;28;20049;-52
2022/04/04 13:09:35;;;;;;;8.43;3.88;;;;;;;10.56;40.64;98898.03;5026021;28;20399;-52